Time;durP1;ratioP1;P1;durP2;ratioP2;P2;SDS_P1;SDS_P2;PMS_P1;PMS_P2;Temp;Humidity;BMP_temperature;BMP_pressure;BME280_temperature;BME280_humidity;BME280_pressure;Samples;Min_cycle;Max_cycle;Signal;HPM_P1;HPM_P2
2023/05/02 00:00:46;;;;;;;33.55;31.17;;;5.80;99.90;;;;;;5106992;29;20479;-73
2023/05/02 00:03:17;;;;;;;34.53;31.85;;;6.00;99.90;;;;;;5106935;29;20095;-73
2023/05/02 00:05:48;;;;;;;32.92;30.63;;;6.20;99.90;;;;;;5106801;29;20119;-73
2023/05/02 00:08:19;;;;;;;32.78;30.48;;;6.00;99.90;;;;;;5106756;29;20058;-73
2023/05/02 00:10:51;;;;;;;32.40;29.95;;;6.00;99.90;;;;;;5106617;29;20043;-74
2023/05/02 00:13:22;;;;;;;32.40;30.02;;;5.90;99.90;;;;;;5106898;29;20503;-73
2023/05/02 00:15:52;;;;;;;32.47;30.27;;;6.30;99.90;;;;;;5106611;29;20058;-73
2023/05/02 00:18:23;;;;;;;33.72;31.50;;;6.30;99.90;;;;;;5106469;29;20047;-73
2023/05/02 00:20:55;;;;;;;33.50;31.08;;;5.80;99.90;;;;;;5106564;29;20028;-73
2023/05/02 00:23:26;;;;;;;32.17;29.83;;;5.70;99.90;;;;;;5106690;29;20034;-73
2023/05/02 00:25:57;;;;;;;30.35;28.15;;;5.80;99.90;;;;;;5106373;29;20023;-72
2023/05/02 00:28:28;;;;;;;30.30;28.15;;;6.20;99.90;;;;;;5106401;29;20166;-73
2023/05/02 00:30:59;;;;;;;30.33;28.20;;;6.10;99.90;;;;;;5106434;29;20428;-73
2023/05/02 00:33:30;;;;;;;29.65;27.40;;;5.90;99.90;;;;;;5106113;29;20028;-73
2023/05/02 00:36:00;;;;;;;32.05;29.75;;;5.80;99.90;;;;;;5105131;29;20036;-73
2023/05/02 00:38:31;;;;;;;30.95;28.77;;;5.90;99.90;;;;;;5060444;29;1357643;-74
2023/05/02 00:41:04;;;;;;;29.02;26.95;;;5.70;99.90;;;;;;5107208;29;20417;-73
2023/05/02 00:43:35;;;;;;;29.88;27.65;;;5.60;99.90;;;;;;5107153;29;20087;-73
2023/05/02 00:46:07;;;;;;;30.05;27.98;;;5.60;99.90;;;;;;5107264;29;20007;-73
2023/05/02 00:48:38;;;;;;;29.85;27.85;;;5.70;99.90;;;;;;5106408;29;20118;-73
2023/05/02 00:51:11;;;;;;;30.17;27.98;;;5.50;99.90;;;;;;5107068;29;20079;-73
2023/05/02 00:53:42;;;;;;;29.83;27.73;;;5.20;99.90;;;;;;5107127;29;20028;-73
2023/05/02 00:56:12;;;;;;;28.95;26.95;;;5.10;99.90;;;;;;5106864;29;20420;-73
2023/05/02 00:58:45;;;;;;;29.23;27.13;;;5.00;99.90;;;;;;5106514;29;20385;-73
2023/05/02 01:01:32;;;;;;;29.17;27.17;;;5.80;99.90;;;;;;5106730;29;20027;-73
2023/05/02 01:04:03;;;;;;;28.85;26.75;;;5.40;99.90;;;;;;5106992;29;20139;-73
2023/05/02 01:07:01;;;;;;;28.10;26.17;;;5.20;99.90;;;;;;5107146;29;20103;-73
2023/05/02 01:09:38;;;;;;;31.05;28.77;;;4.90;99.90;;;;;;5106973;29;20031;-73
2023/05/02 01:12:32;;;;;;;31.25;29.00;;;5.10;99.90;;;;;;5105591;29;20114;-74
2023/05/02 01:15:09;;;;;;;30.40;28.25;;;5.40;99.90;;;;;;5106684;29;20024;-73
2023/05/02 01:17:41;;;;;;;32.35;30.13;;;5.40;99.90;;;;;;5106573;29;20091;-72
2023/05/02 01:20:16;;;;;;;31.95;29.55;;;5.10;99.90;;;;;;5106453;29;20384;-74
2023/05/02 01:22:48;;;;;;;32.78;30.55;;;5.00;99.90;;;;;;5106638;29;20020;-73
2023/05/02 01:25:47;;;;;;;32.40;30.13;;;5.10;99.90;;;;;;5105192;29;20562;-73
2023/05/02 01:28:39;;;;;;;31.10;28.92;;;5.10;99.90;;;;;;5106400;29;20039;-73
2023/05/02 01:31:11;;;;;;;30.77;28.48;;;5.20;99.90;;;;;;5106452;29;20376;-73
2023/05/02 01:33:45;;;;;;;33.45;31.05;;;5.40;99.90;;;;;;5105191;29;20069;-73
2023/05/02 01:36:16;;;;;;;32.42;30.13;;;5.20;99.90;;;;;;5106209;29;20035;-73
2023/05/02 01:38:49;;;;;;;32.70;30.50;;;5.10;99.90;;;;;;5105869;29;20055;-73
2023/05/02 01:41:23;;;;;;;31.23;28.88;;;5.20;99.90;;;;;;5106243;29;20058;-73
2023/05/02 01:43:58;;;;;;;32.25;29.95;;;5.40;99.90;;;;;;5106231;29;20468;-73
2023/05/02 01:46:32;;;;;;;31.02;29.00;;;4.90;99.90;;;;;;5105919;29;20036;-73
2023/05/02 01:49:05;;;;;;;31.65;29.40;;;5.30;99.90;;;;;;5104890;29;20110;-73
2023/05/02 01:51:43;;;;;;;31.13;28.90;;;5.20;99.90;;;;;;5105982;29;20432;-73
2023/05/02 01:54:16;;;;;;;32.28;30.00;;;4.90;99.90;;;;;;5104917;29;20100;-73
2023/05/02 01:56:48;;;;;;;30.30;28.20;;;5.10;99.90;;;;;;5104720;29;20392;-74
2023/05/02 01:59:21;;;;;;;31.80;29.50;;;5.30;99.90;;;;;;5105612;29;20035;-73
2023/05/02 02:01:53;;;;;;;31.90;29.60;;;5.20;99.90;;;;;;5104529;29;20028;-73
2023/05/02 02:04:25;;;;;;;31.73;29.33;;;5.00;99.90;;;;;;5105778;29;20082;-73
2023/05/02 02:07:06;;;;;;;32.03;29.63;;;4.60;99.90;;;;;;5105538;29;20119;-73
2023/05/02 02:09:36;;;;;;;33.05;30.52;;;5.20;99.90;;;;;;5105689;29;20027;-73
2023/05/02 02:12:28;;;;;;;32.30;29.90;;;5.00;99.90;;;;;;5105562;29;20484;-73
2023/05/02 02:15:23;;;;;;;31.25;29.13;;;5.00;99.90;;;;;;5105672;29;20043;-73
2023/05/02 02:17:54;;;;;;;30.42;28.13;;;4.60;99.90;;;;;;5105709;29;20035;-73
2023/05/02 02:20:27;;;;;;;30.30;27.92;;;4.90;99.90;;;;;;5105488;29;20034;-73
2023/05/02 02:23:01;;;;;;;29.25;27.30;;;4.70;99.90;;;;;;5105870;29;20114;-73
2023/05/02 02:25:33;;;;;;;29.77;27.77;;;4.50;99.90;;;;;;5104496;29;20118;-73
2023/05/02 02:28:05;;;;;;;29.80;27.65;;;4.50;99.90;;;;;;5105613;29;20020;-73
2023/05/02 02:30:36;;;;;;;29.08;27.02;;;4.90;99.90;;;;;;5105508;29;20051;-73
2023/05/02 02:33:07;;;;;;;27.92;25.83;;;4.90;99.90;;;;;;5105548;29;20016;-74
2023/05/02 02:35:47;;;;;;;29.92;27.65;;;4.80;99.90;;;;;;5122744;29;20060;-73
2023/05/02 02:38:53;;;;;;;30.80;28.35;;;4.60;99.90;;;;;;5125024;28;20890;-73
2023/05/02 02:41:31;;;;;;;31.20;28.73;;;4.30;99.90;;;;;;5125272;29;20042;-73
2023/05/02 03:03:27;;;;;;;32.08;29.77;;;4.30;99.90;;;;;;5328633;27;20812;-73
2023/05/02 03:05:59;;;;;;;31.15;29.05;;;4.30;99.90;;;;;;5307481;27;20478;-72
2023/05/02 03:08:39;;;;;;;30.15;27.95;;;4.20;99.90;;;;;;5307480;27;20098;-72
2023/05/02 03:11:10;;;;;;;27.77;25.77;;;4.50;99.90;;;;;;5307567;27;20031;-72
2023/05/02 03:13:40;;;;;;;27.52;25.67;;;4.40;99.90;;;;;;5307744;27;20016;-72
2023/05/02 03:16:32;;;;;;;27.27;25.35;;;4.60;99.90;;;;;;5307381;27;20073;-72
2023/05/02 03:19:04;;;;;;;31.73;29.60;;;4.80;99.90;;;;;;5307441;27;20505;-73
2023/05/02 03:21:35;;;;;;;31.10;28.80;;;4.90;99.90;;;;;;5306820;27;20051;-74
2023/05/02 03:24:06;;;;;;;30.52;28.42;;;4.80;99.90;;;;;;5307238;27;20030;-71
2023/05/02 03:26:37;;;;;;;31.20;29.00;;;4.40;99.90;;;;;;5307387;28;20547;-71
2023/05/02 03:29:07;;;;;;;28.52;26.48;;;3.90;99.90;;;;;;5307283;27;20024;-73
2023/05/02 03:31:38;;;;;;;28.02;25.98;;;4.30;99.90;;;;;;5307048;27;20088;-71
2023/05/02 03:34:09;;;;;;;26.25;24.33;;;4.20;99.90;;;;;;5307016;28;20073;-71
2023/05/02 03:36:40;;;;;;;26.98;25.08;;;4.60;99.90;;;;;;5304947;28;20028;-71
2023/05/02 03:39:11;;;;;;;30.25;28.15;;;4.80;99.90;;;;;;5304950;28;20563;-71
2023/05/02 03:41:42;;;;;;;27.52;25.45;;;4.70;99.90;;;;;;5306398;27;20072;-71
2023/05/02 03:44:13;;;;;;;29.27;27.38;;;4.70;99.90;;;;;;5296739;28;20020;-71
2023/05/02 03:46:44;;;;;;;28.30;26.30;;;4.70;99.90;;;;;;5269846;28;20884;-72
2023/05/02 03:49:15;;;;;;;29.10;27.13;;;4.70;99.90;;;;;;5274959;28;20081;-72
2023/05/02 03:51:46;;;;;;;29.85;27.75;;;5.00;99.90;;;;;;5271909;28;20054;-73
2023/05/02 03:54:17;;;;;;;31.80;29.60;;;5.30;99.90;;;;;;5284817;28;20490;-72
2023/05/02 03:56:48;;;;;;;33.05;30.77;;;5.00;99.90;;;;;;5284639;28;20085;-79
2023/05/02 03:59:19;;;;;;;33.13;30.92;;;5.40;99.90;;;;;;5284850;28;20030;-78
2023/05/02 04:01:50;;;;;;;32.85;30.60;;;5.20;99.90;;;;;;5283300;28;20056;-73
2023/05/02 04:04:21;;;;;;;33.42;31.13;;;5.50;99.90;;;;;;5270029;28;20032;-73
2023/05/02 04:06:52;;;;;;;33.65;31.45;;;5.50;99.90;;;;;;5268890;28;20028;-72
2023/05/02 04:09:24;;;;;;;33.03;30.83;;;5.50;99.90;;;;;;5270220;28;20020;-74
2023/05/02 04:11:55;;;;;;;35.33;32.83;;;5.60;99.90;;;;;;5270042;28;20043;-73
2023/05/02 04:14:26;;;;;;;33.55;31.35;;;5.40;99.90;;;;;;5270148;28;20024;-74
2023/05/02 04:16:56;;;;;;;32.97;30.63;;;5.50;99.90;;;;;;5268974;28;20032;-74
2023/05/02 04:19:27;;;;;;;35.22;32.83;;;5.90;99.90;;;;;;5270128;28;20028;-74
2023/05/02 04:21:58;;;;;;;35.10;32.80;;;6.00;99.90;;;;;;5269910;28;20027;-74
2023/05/02 04:24:29;;;;;;;35.72;33.28;;;6.30;99.90;;;;;;5270018;28;20028;-74
2023/05/02 04:27:00;;;;;;;35.42;33.10;;;6.30;99.90;;;;;;5269669;28;20047;-73
2023/05/02 04:29:31;;;;;;;34.80;32.50;;;6.20;99.90;;;;;;5269890;28;20028;-76
2023/05/02 04:32:02;;;;;;;34.83;32.53;;;6.60;99.90;;;;;;5270034;28;20040;-75
2023/05/02 04:34:32;;;;;;;35.38;32.97;;;6.50;99.90;;;;;;5269970;28;20364;-74
2023/05/02 04:37:03;;;;;;;37.33;35.00;;;6.80;99.90;;;;;;5268567;28;20085;-75
2023/05/02 04:39:34;;;;;;;36.05;33.55;;;6.80;99.90;;;;;;5269644;28;20099;-74
2023/05/02 04:42:05;;;;;;;35.15;32.95;;;7.10;99.90;;;;;;5269680;28;20031;-75
2023/05/02 04:44:36;;;;;;;35.50;32.88;;;7.00;99.90;;;;;;5268493;28;20027;-74
2023/05/02 04:47:06;;;;;;;34.60;32.30;;;7.20;99.90;;;;;;5269749;28;20031;-74
2023/05/02 04:49:37;;;;;;;33.25;30.83;;;7.40;99.90;;;;;;5268293;28;20027;-75
2023/05/02 04:52:09;;;;;;;34.40;32.00;;;7.60;99.90;;;;;;5269261;28;20032;-76
2023/05/02 04:54:40;;;;;;;33.22;30.92;;;7.80;99.90;;;;;;5269498;28;20547;-73
2023/05/02 04:57:11;;;;;;;34.00;31.60;;;8.10;99.90;;;;;;5269394;28;20032;-72
2023/05/02 04:59:42;;;;;;;38.25;35.60;;;8.30;99.90;;;;;;5269289;28;20016;-73
2023/05/02 05:02:12;;;;;;;41.80;38.70;;;8.50;99.90;;;;;;5268931;28;20090;-72
2023/05/02 05:04:44;;;;;;;44.70;40.90;;;8.60;99.90;;;;;;5268533;28;20028;-73
2023/05/02 05:07:15;;;;;;;50.30;46.08;;;8.50;99.90;;;;;;5269334;28;20024;-73
2023/05/02 05:09:46;;;;;;;47.67;43.60;;;8.60;99.90;;;;;;5269639;28;20035;-73
2023/05/02 05:12:18;;;;;;;48.88;44.67;;;8.80;99.90;;;;;;5268982;28;20098;-72
2023/05/02 05:14:49;;;;;;;46.33;42.03;;;9.10;99.90;;;;;;5268120;28;20400;-73
2023/05/02 05:17:20;;;;;;;47.63;43.42;;;9.30;99.90;;;;;;5269028;28;20016;-72
2023/05/02 05:19:51;;;;;;;47.55;43.33;;;9.40;99.90;;;;;;5269005;28;20542;-72
2023/05/02 05:22:22;;;;;;;46.28;41.90;;;9.70;99.90;;;;;;5267528;28;20368;-73
2023/05/02 05:24:53;;;;;;;47.40;43.25;;;9.90;99.90;;;;;;5268742;28;20025;-73
2023/05/02 05:27:24;;;;;;;49.72;45.03;;;10.20;99.90;;;;;;5268532;28;20055;-73
2023/05/02 05:29:55;;;;;;;49.28;44.58;;;10.40;99.90;;;;;;5268713;28;20703;-72
2023/05/02 05:32:26;;;;;;;48.20;43.83;;;10.70;99.90;;;;;;5268442;28;20036;-73
2023/05/02 05:34:57;;;;;;;56.38;51.15;;;11.00;99.90;;;;;;5268603;28;20475;-72
2023/05/02 05:37:27;;;;;;;52.25;47.53;;;11.20;99.90;;;;;;5268644;28;20364;-73
2023/05/02 05:39:58;;;;;;;53.03;48.38;;;11.50;99.90;;;;;;5267230;28;20031;-73
2023/05/02 05:42:29;;;;;;;53.30;48.50;;;11.70;99.90;;;;;;5268412;28;20391;-74
2023/05/02 05:45:00;;;;;;;51.42;47.10;;;12.30;99.90;;;;;;5268411;28;20107;-73
2023/05/02 05:47:31;;;;;;;49.92;45.97;;;12.00;99.90;;;;;;5268430;28;20558;-73
2023/05/02 05:50:02;;;;;;;52.45;48.17;;;12.40;99.90;;;;;;5268272;28;20031;-73
2023/05/02 05:52:33;;;;;;;48.38;44.33;;;12.50;99.90;;;;;;5268103;28;20034;-72
2023/05/02 05:55:04;;;;;;;47.47;43.58;;;12.70;99.90;;;;;;5268268;28;20421;-73
2023/05/02 05:57:35;;;;;;;46.10;42.60;;;13.10;99.90;;;;;;5268253;28;20047;-73
2023/05/02 06:00:07;;;;;;;44.50;40.88;;;13.20;99.90;;;;;;5268197;28;20483;-73
2023/05/02 06:02:37;;;;;;;42.08;38.40;;;13.30;99.90;;;;;;5267988;28;20172;-73
2023/05/02 06:05:08;;;;;;;42.15;38.63;;;13.30;99.90;;;;;;5268239;28;20024;-73
2023/05/02 06:07:39;;;;;;;38.05;35.10;;;13.70;99.90;;;;;;5268000;28;20012;-73
2023/05/02 06:10:10;;;;;;;39.80;36.80;;;13.70;99.90;;;;;;5268045;28;20028;-73
2023/05/02 06:12:41;;;;;;;35.75;32.78;;;13.80;99.90;;;;;;5268028;28;20161;-73
2023/05/02 06:15:12;;;;;;;35.75;33.10;;;14.00;99.90;;;;;;5268225;28;20032;-73
2023/05/02 06:17:43;;;;;;;34.65;31.98;;;14.00;99.90;;;;;;5267993;28;20016;-73
2023/05/02 06:20:14;;;;;;;34.55;31.95;;;14.20;99.90;;;;;;5267910;28;20031;-73
2023/05/02 06:22:45;;;;;;;32.22;29.65;;;14.30;99.90;;;;;;5267678;28;20076;-73
2023/05/02 06:25:16;;;;;;;30.40;28.15;;;14.50;99.90;;;;;;5267565;28;20039;-73
2023/05/02 06:27:47;;;;;;;25.05;23.35;;;14.50;99.90;;;;;;5267698;28;20027;-73
2023/05/02 06:30:18;;;;;;;26.40;24.60;;;14.50;99.90;;;;;;5267538;28;20069;-71
2023/05/02 06:32:48;;;;;;;28.65;26.73;;;14.90;99.90;;;;;;5267815;28;20116;-72
2023/05/02 06:35:19;;;;;;;27.67;25.67;;;14.80;99.90;;;;;;5266238;28;20031;-73
2023/05/02 06:37:50;;;;;;;29.05;27.00;;;15.00;99.90;;;;;;5265982;28;20031;-73
2023/05/02 06:40:21;;;;;;;29.20;27.10;;;15.00;99.90;;;;;;5267172;28;20029;-71
2023/05/02 06:42:52;;;;;;;29.13;26.95;;;15.00;99.90;;;;;;5267402;28;20024;-74
2023/05/02 06:45:23;;;;;;;29.17;26.90;;;15.00;99.90;;;;;;5266086;28;20364;-74
2023/05/02 06:47:53;;;;;;;28.58;26.38;;;15.20;99.90;;;;;;5267479;28;20024;-73
2023/05/02 06:50:24;;;;;;;27.50;25.42;;;15.30;99.90;;;;;;5267352;28;20031;-73
2023/05/02 06:52:55;;;;;;;24.67;22.95;;;15.40;99.90;;;;;;5267157;28;20471;-74
2023/05/02 06:55:26;;;;;;;25.48;23.38;;;15.60;99.90;;;;;;5267229;28;20486;-73
2023/05/02 06:57:58;;;;;;;26.40;24.60;;;15.60;99.90;;;;;;5267069;28;20085;-74
2023/05/02 07:00:28;;;;;;;28.75;26.50;;;15.60;99.90;;;;;;5267177;28;20024;-74
2023/05/02 07:02:59;;;;;;;25.90;23.85;;;15.60;99.90;;;;;;5267087;28;20158;-74
2023/05/02 07:05:30;;;;;;;26.02;24.13;;;15.90;99.90;;;;;;5267027;28;20085;-73
2023/05/02 07:08:01;;;;;;;25.83;23.50;;;15.70;99.90;;;;;;5267440;28;20028;-74
2023/05/02 07:10:32;;;;;;;25.42;23.52;;;15.90;99.90;;;;;;5266283;28;20020;-74
2023/05/02 07:13:03;;;;;;;23.40;21.58;;;15.90;99.90;;;;;;5267265;28;20070;-72
2023/05/02 07:15:33;;;;;;;23.73;22.10;;;16.30;99.90;;;;;;5267289;28;20099;-71
2023/05/02 07:18:05;;;;;;;22.85;20.92;;;16.30;99.90;;;;;;5265875;28;20089;-70
2023/05/02 07:20:37;;;;;;;21.95;20.25;;;16.10;99.90;;;;;;5267201;28;20024;-71
2023/05/02 07:23:08;;;;;;;23.52;21.73;;;16.20;99.90;;;;;;5267325;28;20035;-71
2023/05/02 07:25:39;;;;;;;24.10;22.30;;;16.30;99.90;;;;;;5267599;28;20087;-70
2023/05/02 07:28:10;;;;;;;22.65;20.77;;;16.30;99.90;;;;;;5265999;28;20031;-71
2023/05/02 07:30:41;;;;;;;24.95;23.05;;;16.50;99.90;;;;;;5267015;28;20032;-71
2023/05/02 07:33:14;;;;;;;24.67;22.98;;;16.60;99.90;;;;;;5267126;28;20038;-73
2023/05/02 07:35:45;;;;;;;23.25;21.63;;;16.70;99.90;;;;;;5267026;28;20028;-73
2023/05/02 07:38:16;;;;;;;23.25;21.45;;;16.70;99.90;;;;;;5267508;28;20043;-72
2023/05/02 07:40:47;;;;;;;22.63;20.67;;;16.50;99.90;;;;;;5270961;28;20032;-71
2023/05/02 07:43:18;;;;;;;23.58;21.67;;;16.80;99.90;;;;;;5269663;28;20024;-72
2023/05/02 07:45:48;;;;;;;22.55;20.73;;;16.70;99.90;;;;;;5270875;28;20028;-73
2023/05/02 07:48:19;;;;;;;24.10;22.35;;;16.90;99.90;;;;;;5270948;28;20043;-71
2023/05/02 07:50:50;;;;;;;25.15;23.17;;;16.90;99.90;;;;;;5269238;28;20169;-71
2023/05/02 07:53:21;;;;;;;22.40;20.45;;;16.80;99.90;;;;;;5270547;28;20040;-72
2023/05/02 07:55:52;;;;;;;23.02;21.02;;;17.20;99.90;;;;;;5270706;28;20090;-73
2023/05/02 07:58:23;;;;;;;22.10;20.08;;;17.30;99.90;;;;;;5270495;28;20024;-70
2023/05/02 08:00:54;;;;;;;22.48;20.58;;;17.10;99.90;;;;;;5270328;28;20028;-71
2023/05/02 08:03:25;;;;;;;22.23;20.63;;;17.10;99.90;;;;;;5269079;28;20158;-73
2023/05/02 08:05:56;;;;;;;21.13;19.48;;;17.30;99.90;;;;;;5270456;28;20024;-73
2023/05/02 08:08:27;;;;;;;19.73;18.23;;;17.40;99.90;;;;;;5270268;28;20020;-71
2023/05/02 08:10:58;;;;;;;21.50;19.90;;;17.20;99.90;;;;;;5270172;28;20097;-71
2023/05/02 08:13:29;;;;;;;21.30;19.70;;;17.20;99.90;;;;;;5270347;28;20460;-70
2023/05/02 08:16:01;;;;;;;21.63;19.92;;;17.70;99.90;;;;;;5270538;28;20012;-74
2023/05/02 08:18:32;;;;;;;19.63;18.23;;;17.80;99.90;;;;;;5270235;28;20020;-73
2023/05/02 08:21:03;;;;;;;19.35;17.75;;;17.80;99.90;;;;;;5268964;28;20023;-73
2023/05/02 08:23:34;;;;;;;19.80;18.40;;;17.30;99.90;;;;;;5268909;28;20024;-73
2023/05/02 08:26:05;;;;;;;17.75;16.30;;;17.80;99.90;;;;;;5270152;28;20020;-73
2023/05/02 08:28:36;;;;;;;17.20;15.90;;;17.20;99.90;;;;;;5270330;28;20028;-74
2023/05/02 08:31:07;;;;;;;18.50;16.95;;;17.90;99.90;;;;;;5270020;28;20039;-73
2023/05/02 08:33:38;;;;;;;17.15;15.90;;;18.10;99.90;;;;;;5270343;28;20024;-73
2023/05/02 08:36:14;;;;;;;16.77;15.52;;;18.10;99.90;;;;;;5270342;28;20016;-73
2023/05/02 08:38:45;;;;;;;18.40;17.10;;;17.80;99.90;;;;;;5268981;28;20020;-74
2023/05/02 08:41:17;;;;;;;20.15;18.80;;;17.70;99.90;;;;;;5270061;28;20123;-74
2023/05/02 08:43:48;;;;;;;20.77;19.27;;;18.20;99.90;;;;;;5270238;28;20149;-73
2023/05/02 08:46:22;;;;;;;19.40;17.88;;;18.10;99.90;;;;;;5269901;28;20024;-74
2023/05/02 08:48:57;;;;;;;18.83;17.55;;;17.90;99.90;;;;;;5269806;28;20024;-74
2023/05/02 08:51:31;;;;;;;18.63;17.13;;;18.30;99.90;;;;;;5269638;28;20467;-73
2023/05/02 08:54:03;;;;;;;19.00;17.67;;;18.30;99.90;;;;;;5269549;28;20554;-74
2023/05/02 08:56:34;;;;;;;19.38;17.77;;;18.40;99.90;;;;;;5269415;28;20026;-74
2023/05/02 08:59:07;;;;;;;18.83;17.42;;;18.60;99.90;;;;;;5269455;28;20068;-73
2023/05/02 09:01:43;;;;;;;17.92;16.42;;;17.90;99.90;;;;;;5269173;28;20119;-74
2023/05/02 09:04:14;;;;;;;18.00;16.70;;;18.30;99.90;;;;;;5269383;28;20031;-74
2023/05/02 09:06:45;;;;;;;19.60;17.85;;;18.70;99.90;;;;;;5269565;28;20016;-74
2023/05/02 09:09:16;;;;;;;19.08;17.58;;;18.40;99.90;;;;;;5269371;28;20449;-74
2023/05/02 09:11:48;;;;;;;17.83;16.60;;;18.70;99.90;;;;;;5269155;28;20046;-74
2023/05/02 09:14:19;;;;;;;19.25;17.80;;;18.80;99.90;;;;;;5268847;28;20028;-74
2023/05/02 09:16:49;;;;;;;17.73;16.63;;;18.80;99.90;;;;;;5269320;28;20051;-73
2023/05/02 09:19:25;;;;;;;18.42;16.92;;;18.50;99.90;;;;;;5269216;28;20408;-74
2023/05/02 09:22:02;;;;;;;19.88;18.45;;;18.90;99.90;;;;;;5268945;28;20017;-73
2023/05/02 09:24:33;;;;;;;19.45;18.08;;;18.70;99.90;;;;;;5268997;28;20055;-74
2023/05/02 09:27:05;;;;;;;18.45;16.80;;;19.20;99.90;;;;;;5267857;28;20109;-73
2023/05/02 09:29:37;;;;;;;18.73;16.90;;;19.30;99.90;;;;;;5269181;28;20039;-73
2023/05/02 09:32:08;;;;;;;17.90;16.67;;;19.20;99.90;;;;;;5268622;28;20050;-70
2023/05/02 09:34:39;;;;;;;17.10;15.80;;;18.40;99.90;;;;;;5267101;28;20028;-74
2023/05/02 09:37:10;;;;;;;18.85;17.55;;;18.90;99.90;;;;;;5268384;28;20028;-74
2023/05/02 09:40:01;;;;;;;18.02;16.73;;;19.10;99.90;;;;;;5268708;28;20112;-73
2023/05/02 09:42:31;;;;;;;18.20;17.00;;;19.30;99.90;;;;;;5268794;28;20399;-74
2023/05/02 09:45:02;;;;;;;20.23;18.85;;;19.20;99.90;;;;;;5268809;28;20038;-74
2023/05/02 09:47:35;;;;;;;18.83;17.52;;;19.60;99.90;;;;;;5269093;28;20024;-73
2023/05/02 09:50:08;;;;;;;21.50;19.83;;;19.50;99.90;;;;;;5269173;28;20078;-74
2023/05/02 09:52:38;;;;;;;20.85;19.55;;;19.30;99.90;;;;;;5268284;28;20043;-74
2023/05/02 09:55:21;;;;;;;20.10;18.65;;;19.50;99.90;;;;;;5268578;28;20020;-71
2023/05/02 09:57:52;;;;;;;22.25;20.63;;;19.50;99.90;;;;;;5267327;28;20441;-72
2023/05/02 10:00:37;;;;;;;22.10;20.50;;;19.50;99.90;;;;;;5266628;28;20024;-73
2023/05/02 10:03:09;;;;;;;22.48;21.08;;;19.10;99.00;;;;;;5268551;28;20044;-73
2023/05/02 10:05:41;;;;;;;22.48;20.65;;;19.60;99.90;;;;;;5268424;28;20016;-73
2023/05/02 10:08:13;;;;;;;20.17;18.88;;;19.50;99.90;;;;;;5268210;28;20032;-74
2023/05/02 10:10:52;;;;;;;21.50;20.15;;;19.60;99.90;;;;;;5267953;28;20109;-74
2023/05/02 10:13:31;;;;;;;25.63;24.02;;;19.40;99.90;;;;;;5268009;28;20031;-74
2023/05/02 10:16:03;;;;;;;25.83;24.17;;;19.10;94.60;;;;;;5266884;28;20039;-73
2023/05/02 10:18:57;;;;;;;26.50;24.70;;;19.40;98.00;;;;;;5267918;28;20112;-73
2023/05/02 10:21:31;;;;;;;24.58;22.60;;;19.70;99.90;;;;;;5266518;28;20027;-73
2023/05/02 10:24:03;;;;;;;24.90;23.40;;;19.50;94.00;;;;;;5268094;28;20462;-73
2023/05/02 10:26:35;;;;;;;26.55;24.67;;;19.50;99.00;;;;;;5268100;28;20036;-73
2023/05/02 10:29:06;;;;;;;24.00;22.50;;;19.60;97.40;;;;;;5267870;28;20099;-72
2023/05/02 10:31:39;;;;;;;24.05;22.65;;;19.60;99.40;;;;;;5267782;28;20101;-74
2023/05/02 10:34:12;;;;;;;23.65;21.95;;;19.80;99.40;;;;;;5267680;28;20075;-73
2023/05/02 10:36:43;;;;;;;25.35;23.75;;;19.50;90.00;;;;;;5267641;28;20024;-71
2023/05/02 10:39:14;;;;;;;22.27;20.77;;;19.90;98.80;;;;;;5267609;28;20097;-72
2023/05/02 10:41:45;;;;;;;23.48;21.98;;;19.40;95.70;;;;;;5266510;28;20028;-74
2023/05/02 10:44:18;;;;;;;22.83;21.08;;;19.80;95.50;;;;;;5267843;28;20024;-73
2023/05/02 10:46:49;;;;;;;23.30;21.70;;;19.50;93.70;;;;;;5267780;28;20051;-73
2023/05/02 10:49:22;;;;;;;23.67;22.30;;;20.00;97.00;;;;;;5266486;28;20020;-72
2023/05/02 10:51:53;;;;;;;25.02;23.52;;;19.90;92.90;;;;;;5267634;28;20040;-73
2023/05/02 10:54:24;;;;;;;25.92;24.33;;;20.00;97.30;;;;;;5267473;28;20028;-73
2023/05/02 10:57:08;;;;;;;21.52;20.13;;;20.20;98.70;;;;;;5266132;28;20120;-74
2023/05/02 10:59:41;;;;;;;23.13;21.73;;;20.10;92.40;;;;;;5267475;28;20452;-73
2023/05/02 11:02:27;;;;;;;22.08;20.38;;;19.90;92.90;;;;;;5267133;28;20076;-72
2023/05/02 11:05:01;;;;;;;23.70;22.10;;;20.00;95.30;;;;;;5266568;28;20042;-73
2023/05/02 11:07:34;;;;;;;23.90;22.55;;;20.20;96.20;;;;;;5267499;28;20482;-72
2023/05/02 11:10:17;;;;;;;22.52;20.55;;;20.10;97.40;;;;;;5267495;28;20111;-72
2023/05/02 11:12:53;;;;;;;19.77;18.58;;;20.00;90.90;;;;;;5268341;28;20040;-72
2023/05/02 11:15:26;;;;;;;22.83;21.42;;;20.00;91.70;;;;;;5271639;28;20102;-73
2023/05/02 11:17:58;;;;;;;23.73;22.17;;;20.10;95.00;;;;;;5271415;28;20036;-73
2023/05/02 11:20:30;;;;;;;21.80;20.25;;;20.30;93.70;;;;;;5271429;28;20027;-72
2023/05/02 11:23:24;;;;;;;19.42;18.30;;;20.10;93.90;;;;;;5271272;28;20046;-74
2023/05/02 11:25:56;;;;;;;20.85;19.45;;;20.30;93.80;;;;;;5271291;28;20419;-74
2023/05/02 11:28:36;;;;;;;20.55;19.33;;;20.20;92.70;;;;;;5271315;28;20028;-73
2023/05/02 11:31:30;;;;;;;21.10;19.73;;;20.10;91.20;;;;;;5270922;28;20036;-73
2023/05/02 11:34:02;;;;;;;22.23;20.92;;;20.10;90.80;;;;;;5270908;28;20032;-74
2023/05/02 11:36:34;;;;;;;20.92;19.63;;;20.00;89.40;;;;;;5271153;28;20070;-72
2023/05/02 11:39:18;;;;;;;22.75;21.33;;;20.00;91.40;;;;;;5271109;28;20012;-73
2023/05/02 11:41:50;;;;;;;22.67;20.92;;;20.00;90.00;;;;;;5270909;28;20039;-74
2023/05/02 11:44:21;;;;;;;21.15;19.63;;;19.80;88.60;;;;;;5270791;28;20103;-73
2023/05/02 11:46:52;;;;;;;19.67;18.33;;;20.20;94.40;;;;;;5270760;28;20150;-73
2023/05/02 11:49:23;;;;;;;20.15;17.98;;;19.20;89.90;;;;;;5270747;28;20024;-74
2023/05/02 11:51:54;;;;;;;19.08;17.73;;;20.20;94.90;;;;;;5270510;28;20132;-73
2023/05/02 11:54:25;;;;;;;20.42;19.08;;;19.90;86.60;;;;;;5270745;28;20225;-73
2023/05/02 11:56:56;;;;;;;18.58;17.27;;;20.10;94.10;;;;;;5270643;28;20846;-73
2023/05/02 11:59:27;;;;;;;20.05;18.88;;;19.90;93.50;;;;;;5270658;28;20230;-73
2023/05/02 12:01:57;;;;;;;18.42;17.13;;;19.60;89.20;;;;;;5270451;28;20079;-73
2023/05/02 12:04:28;;;;;;;20.55;19.25;;;20.00;93.30;;;;;;5270469;28;20404;-73
2023/05/02 12:06:59;;;;;;;19.58;18.40;;;19.90;92.00;;;;;;5270531;28;20020;-73
2023/05/02 12:09:30;;;;;;;19.95;18.60;;;19.80;90.50;;;;;;5270355;28;20051;-73
2023/05/02 12:12:02;;;;;;;19.55;18.35;;;20.10;91.80;;;;;;5270546;28;20036;-73
2023/05/02 12:14:35;;;;;;;20.38;19.02;;;19.50;87.40;;;;;;5270845;28;20023;-74
2023/05/02 12:17:06;;;;;;;18.42;17.23;;;19.60;92.00;;;;;;5270303;28;20098;-73
2023/05/02 12:19:36;;;;;;;17.88;16.50;;;19.80;90.00;;;;;;5270189;28;20439;-73
2023/05/02 12:22:09;;;;;;;17.35;16.30;;;20.00;93.30;;;;;;5270072;28;20053;-73
2023/05/02 12:24:42;;;;;;;18.90;17.55;;;20.00;90.50;;;;;;5269495;28;20028;-72
2023/05/02 12:27:14;;;;;;;19.75;18.42;;;20.10;92.70;;;;;;5270168;28;20036;-73
2023/05/02 12:29:47;;;;;;;21.17;19.77;;;20.10;90.00;;;;;;5270190;28;20471;-73
2023/05/02 12:32:31;;;;;;;18.88;17.42;;;20.10;91.80;;;;;;5269750;28;20044;-73
2023/05/02 12:35:03;;;;;;;18.60;17.40;;;19.70;89.00;;;;;;5269968;28;20032;-74
2023/05/02 12:37:34;;;;;;;19.30;18.20;;;19.70;89.50;;;;;;5268543;28;20395;-73
2023/05/02 12:40:15;;;;;;;21.05;19.85;;;20.10;93.00;;;;;;5269758;28;20016;-73
2023/05/02 12:43:02;;;;;;;21.60;19.88;;;19.40;87.00;;;;;;5269713;28;20021;-73
2023/05/02 12:45:33;;;;;;;20.45;18.85;;;19.40;89.40;;;;;;5269744;28;20031;-73
2023/05/02 12:48:20;;;;;;;20.63;19.10;;;19.70;89.60;;;;;;5269600;28;20032;-73
2023/05/02 12:50:53;;;;;;;19.40;17.98;;;19.60;91.40;;;;;;5269315;28;20058;-73
2023/05/02 12:53:42;;;;;;;18.77;17.65;;;19.00;87.30;;;;;;5269410;28;20031;-73
2023/05/02 12:56:13;;;;;;;19.15;17.55;;;19.50;90.60;;;;;;5269530;28;20149;-73
2023/05/02 12:58:48;;;;;;;18.23;17.13;;;19.40;90.30;;;;;;5269343;28;20024;-73
2023/05/02 13:01:19;;;;;;;19.38;18.02;;;19.70;92.20;;;;;;5269087;28;20052;-73
2023/05/02 13:03:50;;;;;;;19.65;18.35;;;19.60;92.10;;;;;;5269332;28;20035;-73
2023/05/02 13:06:21;;;;;;;21.40;20.00;;;19.40;90.90;;;;;;5269346;28;20024;-74
2023/05/02 13:08:51;;;;;;;18.23;16.80;;;19.60;92.70;;;;;;5269365;28;20035;-74
2023/05/02 13:11:23;;;;;;;19.33;18.05;;;20.00;94.60;;;;;;5269044;28;20027;-73
2023/05/02 13:13:54;;;;;;;19.13;17.80;;;19.70;90.00;;;;;;5268891;28;20038;-73
2023/05/02 13:16:25;;;;;;;19.85;18.60;;;19.30;90.70;;;;;;5269001;28;20438;-72
2023/05/02 13:18:56;;;;;;;20.02;18.70;;;19.20;90.30;;;;;;5269303;28;20039;-73